createdAt,value
2018-07-21T00:00:35.072Z,1004.22
2018-07-21T00:05:31.984Z,1004.08
2018-07-21T00:10:27.644Z,1004.14
2018-07-21T00:15:23.414Z,1004.05
2018-07-21T00:20:19.049Z,1004.01
2018-07-21T00:25:14.989Z,1004.02
2018-07-21T00:30:11.183Z,1003.92
2018-07-21T00:35:06.830Z,1003.82
2018-07-21T00:40:03.553Z,1003.73
2018-07-21T00:45:00.451Z,1003.69
2018-07-21T00:49:56.194Z,1003.71
2018-07-21T00:54:53.071Z,1003.80
2018-07-21T00:59:50.112Z,1003.71
2018-07-21T01:04:45.716Z,1003.60
2018-07-21T01:09:41.628Z,1003.56
2018-07-21T01:14:37.634Z,1003.49
2018-07-21T01:19:34.476Z,1003.50
2018-07-21T01:24:30.073Z,1003.44
2018-07-21T01:29:26.126Z,1003.49
2018-07-21T01:34:22.221Z,1003.66
2018-07-21T01:39:18.065Z,1003.81
2018-07-21T01:44:15.067Z,1003.88
2018-07-21T01:49:11.719Z,1004.10
2018-07-21T01:54:07.138Z,1004.19
2018-07-21T01:59:02.948Z,1004.13
2018-07-21T02:03:59.825Z,1004.17
2018-07-21T02:08:55.302Z,1004.13
2018-07-21T02:13:51.040Z,1004.08
2018-07-21T02:18:47.233Z,1004.09
2018-07-21T02:23:43.614Z,1004.00
2018-07-21T02:28:40.363Z,1003.92
2018-07-21T02:33:36.407Z,1003.95
2018-07-21T02:38:33.285Z,1003.90
2018-07-21T02:43:29.103Z,1003.88
2018-07-21T02:48:25.319Z,1003.80
2018-07-21T02:53:21.304Z,1003.65
2018-07-21T02:58:17.297Z,1003.73
2018-07-21T03:03:13.168Z,1003.65
2018-07-21T03:08:09.088Z,1003.71
2018-07-21T03:13:04.953Z,1003.57
2018-07-21T03:18:00.695Z,1003.47
2018-07-21T03:22:56.867Z,1003.54
2018-07-21T03:27:53.044Z,1003.51
2018-07-21T03:32:48.856Z,1003.53
2018-07-21T03:37:44.638Z,1003.51
2018-07-21T03:42:41.774Z,1003.53
2018-07-21T03:47:37.591Z,1003.50
2018-07-21T03:52:33.871Z,1003.57
2018-07-21T03:57:29.822Z,1003.41
2018-07-21T04:02:25.713Z,1003.51
2018-07-21T04:07:21.734Z,1003.49
2018-07-21T04:12:17.579Z,1003.48
2018-07-21T04:17:13.990Z,1003.38
2018-07-21T04:22:09.966Z,1003.46
2018-07-21T04:27:06.834Z,1003.60
2018-07-21T04:32:02.462Z,1003.61
2018-07-21T04:36:58.661Z,1003.65
2018-07-21T04:41:54.954Z,1003.63
2018-07-21T04:46:50.818Z,1003.72
2018-07-21T04:51:46.702Z,1003.74
2018-07-21T04:56:42.595Z,1003.62
2018-07-21T05:01:38.856Z,1003.68
2018-07-21T05:06:34.847Z,1003.83
2018-07-21T05:11:30.760Z,1003.78
2018-07-21T05:16:26.425Z,1003.74
2018-07-21T05:21:22.269Z,1003.54
2018-07-21T05:26:18.348Z,1003.65
2018-07-21T05:31:14.348Z,1003.65
2018-07-21T05:36:10.175Z,1003.67
2018-07-21T05:41:06.231Z,1003.71
2018-07-21T05:46:02.275Z,1003.76
2018-07-21T05:50:59.545Z,1003.86
2018-07-21T05:55:55.404Z,1003.95
2018-07-21T06:00:52.500Z,1003.88
2018-07-21T06:05:48.145Z,1004.10
2018-07-21T06:10:44.103Z,1004.23
2018-07-21T06:15:41.222Z,1004.22
2018-07-21T06:20:37.030Z,1004.14
2018-07-21T06:25:34.414Z,1004.13
2018-07-21T06:30:31.495Z,1004.18
2018-07-21T06:35:28.398Z,1004.37
2018-07-21T06:40:24.267Z,1004.43
2018-07-21T06:45:20.464Z,1004.40
2018-07-21T06:50:16.446Z,1004.41
2018-07-21T06:55:13.721Z,1004.62
2018-07-21T07:00:09.452Z,1004.54
2018-07-21T07:05:06.634Z,1004.61
2018-07-21T07:10:02.422Z,1004.57
2018-07-21T07:14:58.344Z,1004.63
2018-07-21T07:19:55.627Z,1004.64
2018-07-21T07:24:51.660Z,1004.60
2018-07-21T07:29:47.668Z,1004.66
2018-07-21T07:34:43.605Z,1004.58
2018-07-21T07:39:39.430Z,1004.54
2018-07-21T07:44:35.738Z,1004.63
2018-07-21T07:49:32.013Z,1004.61
2018-07-21T07:54:29.308Z,1004.65
2018-07-21T07:59:25.423Z,1004.67
2018-07-21T08:04:21.827Z,1004.58
2018-07-21T08:09:19.019Z,1004.66
2018-07-21T08:14:16.864Z,1004.63
2018-07-21T08:19:13.407Z,1004.61
2018-07-21T08:24:09.757Z,1004.73
2018-07-21T08:29:05.726Z,1004.74
2018-07-21T08:34:02.463Z,1004.72
2018-07-21T08:38:58.416Z,1004.71
2018-07-21T08:43:54.492Z,1004.68
2018-07-21T08:48:50.224Z,1004.72
2018-07-21T08:53:46.772Z,1004.68
2018-07-21T08:58:43.626Z,1004.64
2018-07-21T09:03:39.034Z,1004.64
2018-07-21T09:08:34.929Z,1004.53
2018-07-21T09:13:31.061Z,1004.66
2018-07-21T09:18:28.148Z,1004.67
2018-07-21T09:23:24.160Z,1004.55
2018-07-21T09:28:21.537Z,1004.75
2018-07-21T09:33:19.727Z,1004.72
2018-07-21T09:38:15.358Z,1004.82
2018-07-21T09:43:11.854Z,1004.76
2018-07-21T09:48:07.552Z,1004.80
2018-07-21T09:53:03.484Z,1004.71
2018-07-21T09:58:01.225Z,1004.79
2018-07-21T10:02:57.654Z,1004.73
2018-07-21T10:07:55.339Z,1004.78
2018-07-21T10:12:51.529Z,1004.75
2018-07-21T10:17:48.153Z,1004.72
2018-07-21T10:22:46.060Z,1004.72
2018-07-21T10:27:43.483Z,1004.76
2018-07-21T10:32:38.617Z,1004.93
2018-07-21T10:37:37.009Z,1004.85
2018-07-21T10:42:34.632Z,1004.85
2018-07-21T10:47:31.174Z,1004.94
2018-07-21T10:52:28.162Z,1004.78
2018-07-21T10:57:22.835Z,1004.73
2018-07-21T11:02:19.196Z,1004.83
2018-07-21T11:07:14.470Z,1004.81
2018-07-21T11:12:11.136Z,1004.78
2018-07-21T11:17:08.561Z,1004.74
2018-07-21T11:22:05.767Z,1004.74
2018-07-21T11:27:04.275Z,1004.64
2018-07-21T11:32:02.630Z,1004.72
2018-07-21T11:36:59.182Z,1004.70
2018-07-21T11:41:56.911Z,1004.65
2018-07-21T11:46:54.077Z,1004.71
2018-07-21T11:51:50.956Z,1004.62
2018-07-21T11:56:47.746Z,1004.69
2018-07-21T12:01:43.317Z,1004.65
2018-07-21T12:06:39.922Z,1004.66
2018-07-21T12:11:37.368Z,1004.65
2018-07-21T12:16:32.652Z,1004.62
2018-07-21T12:21:28.129Z,1004.59
2018-07-21T12:26:24.085Z,1004.56
2018-07-21T12:31:20.354Z,1004.50
2018-07-21T12:36:15.854Z,1004.49
2018-07-21T12:41:12.144Z,1004.36
2018-07-21T12:46:08.101Z,1004.42
2018-07-21T12:51:03.377Z,1004.41
2018-07-21T12:55:58.849Z,1004.36
2018-07-21T13:00:55.351Z,1004.33
2018-07-21T13:05:51.182Z,1004.29
2018-07-21T13:10:47.990Z,1004.24
2018-07-21T13:15:42.496Z,1004.29
2018-07-21T13:20:38.401Z,1004.30
2018-07-21T13:25:33.768Z,1004.36
2018-07-21T13:30:30.125Z,1004.29
2018-07-21T13:35:26.649Z,1004.28
2018-07-21T13:40:22.087Z,1004.32
2018-07-21T13:45:17.986Z,1004.25
2018-07-21T13:50:14.141Z,1004.22
2018-07-21T13:55:09.751Z,1004.18
2018-07-21T14:00:05.459Z,1004.11
2018-07-21T14:05:02.351Z,1004.19
2018-07-21T14:09:58.289Z,1004.15
2018-07-21T14:14:54.188Z,1004.16
2018-07-21T14:19:49.871Z,1004.12
2018-07-21T14:24:45.561Z,1004.09
2018-07-21T14:29:41.043Z,1004.14
2018-07-21T14:34:37.804Z,1004.18
2018-07-21T14:39:34.578Z,1004.20
2018-07-21T14:44:31.446Z,1004.21
2018-07-21T14:49:28.214Z,1004.18
2018-07-21T14:54:23.941Z,1004.21
2018-07-21T14:59:19.871Z,1004.23
2018-07-21T15:04:15.700Z,1004.15
2018-07-21T15:09:11.651Z,1004.13
2018-07-21T15:14:07.602Z,1004.14
2018-07-21T15:19:03.978Z,1004.10
2018-07-21T15:23:59.848Z,1004.10
2018-07-21T15:28:56.053Z,1004.26
2018-07-21T15:33:51.892Z,1004.31
2018-07-21T15:38:47.831Z,1004.27
2018-07-21T15:43:43.685Z,1004.41
2018-07-21T15:48:39.561Z,1004.55
2018-07-21T15:53:35.193Z,1004.58
2018-07-21T15:58:31.130Z,1004.57
2018-07-21T16:03:25.927Z,1004.77
2018-07-21T16:08:22.171Z,1004.89
2018-07-21T16:13:17.333Z,1005.00
2018-07-21T16:18:14.247Z,1004.96
2018-07-21T16:23:09.691Z,1005.04
2018-07-21T16:28:05.580Z,1004.88
2018-07-21T16:33:01.960Z,1004.92
2018-07-21T16:37:58.142Z,1004.76
2018-07-21T16:42:54.014Z,1004.73
2018-07-21T16:47:50.513Z,1004.63
2018-07-21T16:52:46.333Z,1004.56
2018-07-21T16:57:42.244Z,1004.58
2018-07-21T17:02:38.210Z,1004.60
2018-07-21T17:07:34.761Z,1004.68
2018-07-21T17:12:30.995Z,1004.65
2018-07-21T17:17:26.885Z,1004.70
2018-07-21T17:22:22.649Z,1004.64
2018-07-21T17:27:18.570Z,1004.49
2018-07-21T17:32:14.651Z,1004.54
2018-07-21T17:37:10.447Z,1004.50
2018-07-21T17:42:06.394Z,1004.46
2018-07-21T17:47:02.511Z,1004.51
2018-07-21T17:51:58.344Z,1004.47
2018-07-21T17:56:54.269Z,1004.42
2018-07-21T18:01:50.272Z,1004.49
2018-07-21T18:06:46.312Z,1004.50
2018-07-21T18:11:42.391Z,1004.41
2018-07-21T18:16:38.375Z,1004.42
2018-07-21T18:21:35.283Z,1004.55
2018-07-21T18:26:32.348Z,1004.49
2018-07-21T18:31:27.780Z,1004.47
2018-07-21T18:36:24.488Z,1004.46
2018-07-21T18:41:20.060Z,1004.60
2018-07-21T18:46:15.932Z,1004.56
2018-07-21T18:51:11.972Z,1004.60
2018-07-21T18:56:07.786Z,1004.64
2018-07-21T19:01:04.877Z,1004.61
2018-07-21T19:06:00.462Z,1004.70
2018-07-21T19:10:56.515Z,1004.66
2018-07-21T19:15:52.376Z,1004.66
2018-07-21T19:20:49.445Z,1004.73
2018-07-21T19:25:44.897Z,1004.68
2018-07-21T19:30:40.928Z,1004.72
2018-07-21T19:35:36.578Z,1004.82
2018-07-21T19:40:33.491Z,1004.88
2018-07-21T19:45:29.255Z,1004.78
2018-07-21T19:50:25.390Z,1004.94
2018-07-21T19:55:21.335Z,1004.94
2018-07-21T20:00:17.419Z,1005.13
2018-07-21T20:05:13.283Z,1005.15
2018-07-21T20:10:09.115Z,1005.10
2018-07-21T20:15:05.096Z,1005.25
2018-07-21T20:20:00.962Z,1005.40
2018-07-21T20:24:56.917Z,1005.41
2018-07-21T20:29:52.903Z,1005.34
2018-07-21T20:34:49.803Z,1005.35
2018-07-21T20:39:45.552Z,1005.40
2018-07-21T20:44:41.719Z,1005.43
2018-07-21T20:49:37.463Z,1005.34
2018-07-21T20:54:33.582Z,1005.36
2018-07-21T20:59:29.504Z,1005.43
2018-07-21T21:04:26.357Z,1005.39
2018-07-21T21:09:23.110Z,1005.34
2018-07-21T21:14:19.051Z,1005.22
2018-07-21T21:19:14.967Z,1005.31
2018-07-21T21:24:10.974Z,1005.24
2018-07-21T21:29:06.920Z,1005.16
2018-07-21T21:34:03.795Z,1005.20
2018-07-21T21:38:59.523Z,1005.16
2018-07-21T21:43:56.456Z,1005.17
2018-07-21T21:48:52.833Z,1005.24
2018-07-21T21:53:48.600Z,1005.27
2018-07-21T21:58:44.529Z,1005.29
2018-07-21T22:03:41.129Z,1005.27
2018-07-21T22:08:37.647Z,1005.22
2018-07-21T22:13:33.340Z,1005.12
2018-07-21T22:18:30.192Z,1005.20
2018-07-21T22:23:25.812Z,1005.30
2018-07-21T22:28:21.797Z,1005.35
2018-07-21T22:33:18.084Z,1005.45
2018-07-21T22:38:13.894Z,1005.49
2018-07-21T22:43:09.453Z,1005.58
2018-07-21T22:48:05.521Z,1005.59
2018-07-21T22:53:01.447Z,1005.60
2018-07-21T22:57:58.785Z,1005.68
2018-07-21T23:02:54.553Z,1005.63
2018-07-21T23:07:51.063Z,1005.59
2018-07-21T23:12:47.895Z,1005.65
2018-07-21T23:17:43.585Z,1005.70
2018-07-21T23:22:40.704Z,1005.70
2018-07-21T23:27:37.268Z,1005.61
2018-07-21T23:32:33.327Z,1005.75
2018-07-21T23:37:30.373Z,1005.67
2018-07-21T23:42:26.260Z,1005.73
2018-07-21T23:47:21.990Z,1005.73
2018-07-21T23:52:18.552Z,1005.74
2018-07-21T23:57:14.224Z,1005.75
